createdAt,value
2023-04-18T00:00:48.984Z,11.85
2023-04-18T00:03:17.894Z,11.15
2023-04-18T00:05:48.257Z,11.07
2023-04-18T00:08:18.520Z,11.00
2023-04-18T00:10:47.318Z,10.95
2023-04-18T00:13:18.421Z,10.07
2023-04-18T00:15:46.883Z,9.93
2023-04-18T00:18:17.341Z,9.32
2023-04-18T00:20:47.182Z,9.80
2023-04-18T00:23:17.212Z,9.20
2023-04-18T00:25:45.800Z,8.68
2023-04-18T00:28:14.538Z,9.15
2023-04-18T00:30:43.144Z,8.48
2023-04-18T00:33:11.774Z,8.70
2023-04-18T00:35:40.358Z,8.90
2023-04-18T00:38:08.874Z,8.00
2023-04-18T00:40:38.932Z,9.02
2023-04-18T00:43:09.261Z,8.68
2023-04-18T00:45:37.956Z,8.88
2023-04-18T00:48:06.665Z,8.98
2023-04-18T00:50:35.116Z,8.88
2023-04-18T00:53:04.014Z,9.10
2023-04-18T00:55:32.643Z,8.75
2023-04-18T00:58:02.971Z,8.98
2023-04-18T01:00:32.133Z,9.60
2023-04-18T01:03:00.994Z,8.85
2023-04-18T01:05:29.638Z,10.32
2023-04-18T01:08:01.360Z,8.77
2023-04-18T01:10:31.977Z,10.18
2023-04-18T01:13:21.690Z,9.15
2023-04-18T01:15:54.348Z,9.55
2023-04-18T01:18:24.469Z,10.05
2023-04-18T01:20:54.964Z,9.55
2023-04-18T01:23:23.653Z,9.95
2023-04-18T01:25:53.882Z,9.70
2023-04-18T01:28:22.985Z,10.68
2023-04-18T01:30:51.647Z,10.15
2023-04-18T01:33:19.962Z,9.57
2023-04-18T01:35:48.354Z,10.57
2023-04-18T01:38:16.782Z,10.05
2023-04-18T01:40:45.694Z,9.82
2023-04-18T01:43:15.464Z,11.02
2023-04-18T01:45:43.737Z,10.90
2023-04-18T01:48:12.210Z,10.20
2023-04-18T01:50:40.733Z,10.32
2023-04-18T01:53:09.460Z,11.35
2023-04-18T01:55:38.027Z,10.23
2023-04-18T01:58:06.506Z,11.05
2023-04-18T02:00:36.403Z,10.48
2023-04-18T02:03:05.275Z,10.32
2023-04-18T02:05:33.681Z,10.82
2023-04-18T02:08:02.164Z,10.13
2023-04-18T02:10:30.807Z,11.05
2023-04-18T02:12:59.303Z,10.60
2023-04-18T02:15:29.041Z,10.43
2023-04-18T02:18:00.076Z,10.68
2023-04-18T02:20:31.706Z,9.98
2023-04-18T02:23:00.706Z,10.68
2023-04-18T02:25:29.760Z,10.90
2023-04-18T02:27:59.374Z,10.65
2023-04-18T02:30:28.378Z,10.68
2023-04-18T02:32:59.148Z,10.63
2023-04-18T02:35:28.936Z,10.65
2023-04-18T02:37:57.955Z,10.68
2023-04-18T02:40:26.624Z,11.25
2023-04-18T02:42:55.337Z,10.23
2023-04-18T02:45:23.969Z,10.88
2023-04-18T02:47:55.970Z,10.90
2023-04-18T02:50:27.279Z,10.82
2023-04-18T02:52:56.027Z,11.15
2023-04-18T02:55:27.261Z,11.43
2023-04-18T02:57:58.219Z,10.80
2023-04-18T03:00:27.179Z,11.15
2023-04-18T03:02:56.001Z,10.60
2023-04-18T03:05:26.397Z,11.35
2023-04-18T03:07:56.319Z,11.35
2023-04-18T03:10:25.240Z,11.98
2023-04-18T03:12:54.012Z,10.45
2023-04-18T03:15:23.256Z,10.98
2023-04-18T03:17:52.533Z,11.93
2023-04-18T03:20:21.973Z,11.25
2023-04-18T03:22:52.364Z,11.30
2023-04-18T03:25:20.821Z,11.68
2023-04-18T03:27:49.428Z,11.80
2023-04-18T03:30:19.417Z,11.52
2023-04-18T03:32:49.590Z,11.60
2023-04-18T03:35:18.745Z,11.45
2023-04-18T03:37:47.261Z,11.05
2023-04-18T03:40:17.372Z,12.27
2023-04-18T03:42:45.802Z,11.43
2023-04-18T03:45:14.444Z,11.70
2023-04-18T03:47:43.079Z,11.80
2023-04-18T03:50:12.503Z,11.75
2023-04-18T03:52:41.396Z,13.10
2023-04-18T03:55:11.541Z,12.57
2023-04-18T03:57:41.780Z,12.88
2023-04-18T04:00:12.665Z,11.98
2023-04-18T04:02:41.814Z,12.60
2023-04-18T04:05:11.187Z,12.43
2023-04-18T04:07:39.994Z,12.82
2023-04-18T04:10:09.581Z,12.18
2023-04-18T04:12:38.270Z,12.02
2023-04-18T04:15:12.822Z,13.13
2023-04-18T04:17:41.361Z,13.18
2023-04-18T04:20:11.375Z,13.32
2023-04-18T04:22:40.327Z,12.75
2023-04-18T04:25:10.628Z,13.52
2023-04-18T04:27:39.019Z,14.07
2023-04-18T04:30:13.161Z,12.90
2023-04-18T04:32:44.831Z,15.67
2023-04-18T04:35:14.515Z,13.55
2023-04-18T04:37:45.118Z,13.90
2023-04-18T04:40:16.115Z,13.35
2023-04-18T04:45:45.809Z,13.50
2023-04-18T04:48:15.268Z,13.45
2023-04-18T04:51:14.916Z,13.35
2023-04-18T04:53:45.032Z,12.57
2023-04-18T04:56:13.819Z,15.23
2023-04-18T04:58:42.762Z,14.45
2023-04-18T05:01:13.413Z,13.32
2023-04-18T05:03:42.896Z,14.10
2023-04-18T05:06:11.824Z,13.73
2023-04-18T05:08:43.704Z,12.82
2023-04-18T05:11:12.687Z,13.32
2023-04-18T05:13:42.268Z,13.30
2023-04-18T05:16:13.289Z,13.57
2023-04-18T05:18:42.544Z,12.20
2023-04-18T05:21:11.196Z,13.30
2023-04-18T05:23:55.771Z,13.18
2023-04-18T05:26:25.062Z,13.98
2023-04-18T05:28:54.188Z,12.55
2023-04-18T05:31:27.207Z,12.48
2023-04-18T05:33:56.846Z,12.18
2023-04-18T05:36:25.715Z,13.57
2023-04-18T05:38:54.641Z,13.70
2023-04-18T05:41:23.817Z,12.98
2023-04-18T05:44:02.430Z,12.98
2023-04-18T05:46:40.705Z,13.48
2023-04-18T05:49:09.674Z,13.57
2023-04-18T05:51:38.841Z,13.00
2023-04-18T05:54:08.223Z,12.43
2023-04-18T05:56:37.169Z,13.45
2023-04-18T05:59:06.752Z,13.13
2023-04-18T06:01:37.059Z,12.82
2023-04-18T06:04:06.426Z,12.65
2023-04-18T06:06:35.389Z,13.02
2023-04-18T06:09:04.354Z,12.75
2023-04-18T06:11:35.693Z,12.95
2023-04-18T06:14:05.136Z,12.82
2023-04-18T06:16:35.226Z,11.75
2023-04-18T06:19:04.368Z,12.30
2023-04-18T06:21:34.278Z,12.52
2023-04-18T06:24:02.928Z,12.13
2023-04-18T06:26:32.148Z,13.05
2023-04-18T06:29:00.816Z,11.68
2023-04-18T06:31:29.757Z,11.85
2023-04-18T06:33:59.918Z,11.50
2023-04-18T06:36:28.865Z,11.73
2023-04-18T06:38:57.406Z,11.68
2023-04-18T06:41:26.197Z,11.52
2023-04-18T06:44:03.370Z,10.95
2023-04-18T06:46:33.063Z,11.40
2023-04-18T06:49:03.887Z,10.30
2023-04-18T06:51:32.819Z,11.27
2023-04-18T06:54:01.480Z,10.25
2023-04-18T06:56:31.236Z,10.85
2023-04-18T06:58:59.908Z,11.23
2023-04-18T07:01:28.404Z,10.25
2023-04-18T07:03:57.893Z,10.85
2023-04-18T07:06:28.152Z,10.70
2023-04-18T07:09:00.314Z,10.45
2023-04-18T07:11:30.198Z,9.95
2023-04-18T07:13:58.980Z,10.50
2023-04-18T07:16:27.825Z,10.32
2023-04-18T07:18:56.377Z,10.52
2023-04-18T07:21:25.115Z,10.75
2023-04-18T07:23:58.470Z,10.13
2023-04-18T07:26:27.728Z,10.93
2023-04-18T07:28:56.302Z,10.38
2023-04-18T07:31:25.878Z,10.93
2023-04-18T07:33:54.516Z,11.25
2023-04-18T07:36:23.107Z,10.93
2023-04-18T07:38:51.965Z,10.65
2023-04-18T07:41:22.091Z,11.60
2023-04-18T07:43:50.824Z,10.02
2023-04-18T07:46:19.394Z,10.50
2023-04-18T07:48:47.999Z,11.57
2023-04-18T07:51:16.591Z,10.95
2023-04-18T07:53:45.648Z,10.88
2023-04-18T07:56:14.579Z,11.02
2023-04-18T07:58:44.518Z,10.73
2023-04-18T08:01:16.275Z,10.57
2023-04-18T08:03:46.048Z,10.05
2023-04-18T08:06:15.427Z,10.13
2023-04-18T08:08:44.298Z,9.98
2023-04-18T08:11:12.985Z,11.10
2023-04-18T08:13:50.263Z,11.20
2023-04-18T08:16:19.278Z,10.10
2023-04-18T08:18:48.854Z,10.45
2023-04-18T08:21:17.865Z,10.82
2023-04-18T08:23:46.801Z,11.27
2023-04-18T08:26:16.090Z,11.07
2023-04-18T08:28:46.718Z,9.77
2023-04-18T08:31:22.490Z,9.85
2023-04-18T08:36:19.956Z,9.90
2023-04-18T08:38:50.678Z,10.07
2023-04-18T08:41:27.361Z,9.52
2023-04-18T08:43:57.382Z,9.02
2023-04-18T08:46:26.571Z,9.10
2023-04-18T08:48:58.727Z,10.10
2023-04-18T08:51:30.680Z,9.95
2023-04-18T08:54:02.760Z,9.55
2023-04-18T08:56:31.327Z,10.32
2023-04-18T08:59:01.692Z,9.82
2023-04-18T09:01:56.581Z,10.23
2023-04-18T09:04:37.939Z,9.48
2023-04-18T09:07:11.336Z,10.07
2023-04-18T09:09:46.773Z,9.63
2023-04-18T09:14:50.298Z,10.25
2023-04-18T09:17:34.178Z,10.55
2023-04-18T09:20:06.515Z,9.32
2023-04-18T09:22:48.971Z,9.73
2023-04-18T09:25:30.621Z,9.63
2023-04-18T09:28:02.543Z,9.88
2023-04-18T09:30:40.254Z,10.23
2023-04-18T09:33:12.020Z,9.85
2023-04-18T09:35:41.623Z,9.43
2023-04-18T09:38:11.826Z,9.27
2023-04-18T09:40:46.126Z,10.07
2023-04-18T09:43:20.916Z,9.70
2023-04-18T09:45:53.200Z,8.77
2023-04-18T09:48:22.995Z,9.75
2023-04-18T09:50:52.065Z,8.90
2023-04-18T09:53:21.888Z,9.32
2023-04-18T09:55:57.476Z,10.57
2023-04-18T09:58:31.025Z,9.80
2023-04-18T10:01:01.804Z,9.25
2023-04-18T10:03:45.604Z,9.77
2023-04-18T10:06:18.332Z,8.93
2023-04-18T10:08:49.148Z,9.18
2023-04-18T10:11:19.287Z,9.85
2023-04-18T10:13:55.044Z,9.50
2023-04-18T10:16:25.482Z,8.67
2023-04-18T10:18:54.047Z,9.10
2023-04-18T10:21:23.411Z,9.68
2023-04-18T10:23:52.860Z,9.13
2023-04-18T10:26:21.620Z,8.98
2023-04-18T10:28:56.433Z,10.48
2023-04-18T10:31:27.895Z,10.00
2023-04-18T10:34:05.185Z,10.18
2023-04-18T10:36:34.794Z,10.32
2023-04-18T10:39:20.686Z,9.50
2023-04-18T10:41:52.512Z,11.02
2023-04-18T10:44:23.701Z,11.05
2023-04-18T10:47:28.424Z,10.18
2023-04-18T10:50:01.478Z,9.65
2023-04-18T10:52:30.891Z,9.80
2023-04-18T10:55:33.023Z,10.43
2023-04-18T10:58:01.766Z,10.43
2023-04-18T11:00:32.334Z,10.90
2023-04-18T11:03:02.652Z,10.85
2023-04-18T11:05:32.014Z,10.57
2023-04-18T11:08:01.183Z,10.38
2023-04-18T11:10:30.594Z,10.43
2023-04-18T11:13:04.776Z,10.38
2023-04-18T11:15:40.130Z,10.38
2023-04-18T11:20:41.721Z,10.40
2023-04-18T11:23:20.681Z,10.68
2023-04-18T11:25:54.810Z,10.32
2023-04-18T11:28:27.428Z,11.07
2023-04-18T11:31:00.473Z,10.80
2023-04-18T11:33:32.354Z,11.55
2023-04-18T11:36:08.423Z,11.55
2023-04-18T11:38:38.495Z,11.20
2023-04-18T11:41:13.011Z,11.32
2023-04-18T11:43:45.818Z,11.55
2023-04-18T11:46:15.976Z,11.55
2023-04-18T11:48:47.833Z,11.57
2023-04-18T11:51:40.159Z,12.50
2023-04-18T11:54:41.781Z,12.20
2023-04-18T11:57:23.683Z,11.38
2023-04-18T11:59:57.832Z,12.02
2023-04-18T12:02:40.186Z,12.13
2023-04-18T12:05:27.774Z,12.43
2023-04-18T12:07:57.733Z,12.27
2023-04-18T12:10:30.877Z,12.65
2023-04-18T12:13:14.281Z,12.75
2023-04-18T12:15:46.380Z,12.32
2023-04-18T12:18:18.293Z,11.48
2023-04-18T12:20:54.986Z,12.07
2023-04-18T12:23:36.071Z,12.85
2023-04-18T12:26:07.739Z,12.20
2023-04-18T12:28:37.198Z,12.73
2023-04-18T12:31:07.802Z,12.10
2023-04-18T12:33:37.215Z,11.52
2023-04-18T12:36:12.304Z,12.27
2023-04-18T12:38:43.712Z,12.52
2023-04-18T12:41:12.931Z,12.52
2023-04-18T12:43:41.269Z,12.35
2023-04-18T12:46:09.928Z,11.43
2023-04-18T12:48:38.658Z,11.40
2023-04-18T12:51:08.913Z,11.55
2023-04-18T12:53:37.914Z,11.77
2023-04-18T12:56:07.194Z,11.90
2023-04-18T12:58:36.125Z,12.27
2023-04-18T13:01:05.128Z,11.90
2023-04-18T13:03:34.959Z,11.35
2023-04-18T13:06:04.980Z,11.98
2023-04-18T13:08:34.934Z,12.30
2023-04-18T13:11:03.380Z,12.13
2023-04-18T13:13:33.433Z,12.00
2023-04-18T13:16:06.912Z,11.70
2023-04-18T13:18:35.930Z,12.07
2023-04-18T13:21:04.623Z,12.50
2023-04-18T13:23:34.840Z,11.20
2023-04-18T13:26:03.585Z,11.80
2023-04-18T13:28:32.636Z,12.07
2023-04-18T13:31:01.398Z,11.65
2023-04-18T13:33:30.376Z,11.80
2023-04-18T13:35:59.900Z,10.93
2023-04-18T13:38:29.296Z,11.80
2023-04-18T13:41:11.548Z,11.98
2023-04-18T13:43:41.969Z,11.35
2023-04-18T13:46:10.702Z,11.18
2023-04-18T13:48:39.099Z,11.73
2023-04-18T13:51:08.194Z,11.45
2023-04-18T13:53:36.791Z,12.70
2023-04-18T13:56:07.874Z,11.27
2023-04-18T13:58:36.507Z,11.75
2023-04-18T14:01:05.711Z,12.27
2023-04-18T14:03:39.362Z,11.35
2023-04-18T14:06:09.239Z,11.07
2023-04-18T14:08:38.017Z,10.43
2023-04-18T14:11:08.449Z,11.57
2023-04-18T14:13:37.415Z,11.05
2023-04-18T14:16:10.919Z,10.52
2023-04-18T14:18:40.122Z,10.02
2023-04-18T14:21:08.888Z,10.43
2023-04-18T14:23:40.882Z,10.25
2023-04-18T14:26:11.413Z,9.88
2023-04-18T14:28:40.329Z,10.27
2023-04-18T14:31:09.952Z,10.40
2023-04-18T14:33:38.692Z,10.43
2023-04-18T14:36:09.744Z,9.45
2023-04-18T14:38:41.243Z,9.40
2023-04-18T14:41:14.612Z,9.82
2023-04-18T14:43:49.391Z,9.15
2023-04-18T14:46:23.870Z,9.48
2023-04-18T14:48:56.000Z,9.80
2023-04-18T14:52:16.785Z,9.02
2023-04-18T14:54:47.553Z,8.43
2023-04-18T14:57:18.402Z,9.63
2023-04-18T14:59:47.497Z,8.85
2023-04-18T15:02:18.786Z,8.65
2023-04-18T15:04:48.510Z,8.63
2023-04-18T15:07:17.041Z,8.23
2023-04-18T15:09:45.678Z,7.90
2023-04-18T15:12:14.705Z,8.48
2023-04-18T15:14:45.010Z,8.10
2023-04-18T15:17:13.828Z,7.88
2023-04-18T15:19:42.687Z,8.00
2023-04-18T15:22:11.591Z,8.73
2023-04-18T15:24:41.621Z,8.70
2023-04-18T15:27:12.039Z,9.88
2023-04-18T15:30:22.223Z,9.35
2023-04-18T15:32:50.996Z,8.93
2023-04-18T15:35:20.116Z,9.80
2023-04-18T15:37:49.331Z,9.30
2023-04-18T15:40:19.122Z,9.25
2023-04-18T15:42:53.816Z,8.60
2023-04-18T15:45:24.457Z,8.70
2023-04-18T15:47:54.262Z,8.10
2023-04-18T15:50:25.104Z,8.68
2023-04-18T15:52:56.425Z,8.27
2023-04-18T15:55:25.021Z,8.23
2023-04-18T15:57:54.527Z,7.95
2023-04-18T16:00:24.746Z,8.45
2023-04-18T16:02:55.145Z,8.55
2023-04-18T16:05:23.959Z,9.05
2023-04-18T16:07:54.138Z,8.80
2023-04-18T16:10:22.962Z,9.20
2023-04-18T16:12:53.806Z,8.27
2023-04-18T16:15:27.220Z,8.43
2023-04-18T16:17:56.246Z,8.45
2023-04-18T16:20:27.266Z,8.82
2023-04-18T16:22:56.241Z,7.65
2023-04-18T16:25:29.357Z,8.05
2023-04-18T16:27:57.998Z,8.05
2023-04-18T16:30:29.300Z,8.18
2023-04-18T16:32:58.427Z,8.52
2023-04-18T16:35:29.487Z,7.78
2023-04-18T16:38:00.178Z,8.05
2023-04-18T16:40:30.859Z,8.27
2023-04-18T16:42:59.525Z,7.60
2023-04-18T16:45:29.877Z,7.60
2023-04-18T16:47:59.330Z,8.07
2023-04-18T16:50:28.240Z,8.40
2023-04-18T16:52:59.064Z,8.50
2023-04-18T16:55:28.229Z,8.32
2023-04-18T16:58:00.653Z,8.75
2023-04-18T17:00:34.705Z,8.38
2023-04-18T17:03:10.159Z,8.95
2023-04-18T17:05:42.321Z,8.30
2023-04-18T17:08:11.276Z,8.45
2023-04-18T17:10:40.109Z,8.25
2023-04-18T17:13:10.446Z,8.52
2023-04-18T17:15:42.997Z,8.35
2023-04-18T17:18:11.953Z,8.20
2023-04-18T17:20:46.750Z,8.90
2023-04-18T17:23:17.156Z,8.18
2023-04-18T17:25:46.562Z,8.35
2023-04-18T17:28:15.572Z,8.30
2023-04-18T17:30:47.286Z,8.13
2023-04-18T17:33:16.166Z,8.18
2023-04-18T17:35:45.077Z,8.07
2023-04-18T17:38:14.040Z,8.55
2023-04-18T17:40:42.728Z,7.78
2023-04-18T17:43:15.369Z,8.00
2023-04-18T17:45:46.637Z,7.05
2023-04-18T17:48:21.484Z,7.63
2023-04-18T17:50:50.045Z,8.60
2023-04-18T17:53:20.253Z,7.90
2023-04-18T17:55:59.418Z,8.75
2023-04-18T17:58:28.774Z,7.93
2023-04-18T18:00:59.067Z,7.97
2023-04-18T18:03:33.255Z,8.32
2023-04-18T18:06:30.934Z,8.80
2023-04-18T18:09:00.740Z,7.00
2023-04-18T18:11:30.595Z,5.97
2023-04-18T18:14:16.431Z,6.40
2023-04-18T18:19:22.723Z,6.80
2023-04-18T18:21:51.390Z,7.10
2023-04-18T18:24:24.487Z,7.95
2023-04-18T18:26:53.837Z,7.40
2023-04-18T18:29:29.897Z,8.05
2023-04-18T18:32:01.371Z,9.25
2023-04-18T18:34:32.000Z,8.45
2023-04-18T18:37:06.982Z,9.02
2023-04-18T18:39:39.652Z,9.20
2023-04-18T18:42:08.548Z,9.15
2023-04-18T18:44:37.713Z,8.73
2023-04-18T18:47:07.765Z,9.25
2023-04-18T18:49:54.909Z,9.18
2023-04-18T18:52:25.503Z,9.20
2023-04-18T18:54:55.954Z,9.90
2023-04-18T18:57:27.268Z,9.43
2023-04-18T18:59:56.588Z,10.55
2023-04-18T19:02:29.205Z,10.00
2023-04-18T19:04:59.333Z,10.68
2023-04-18T19:07:30.595Z,10.68
2023-04-18T19:10:00.564Z,10.68
2023-04-18T19:12:29.639Z,10.15
2023-04-18T19:14:58.221Z,9.98
2023-04-18T19:17:31.199Z,10.20
2023-04-18T19:20:01.719Z,10.70
2023-04-18T19:22:31.254Z,10.65
2023-04-18T19:25:01.194Z,9.98
2023-04-18T19:27:33.353Z,10.77
2023-04-18T19:30:02.868Z,11.23
2023-04-18T19:32:33.162Z,10.45
2023-04-18T19:35:01.710Z,10.30
2023-04-18T19:37:30.313Z,10.60
2023-04-18T19:39:59.064Z,10.48
2023-04-18T19:42:27.497Z,10.65
2023-04-18T19:44:57.320Z,10.80
2023-04-18T19:47:26.062Z,10.88
2023-04-18T19:49:56.298Z,10.82
2023-04-18T19:52:24.909Z,14.23
2023-04-18T19:54:55.669Z,11.63
2023-04-18T19:57:25.705Z,10.95
2023-04-18T19:59:54.536Z,11.00
2023-04-18T20:02:23.514Z,11.15
2023-04-18T20:04:52.339Z,10.63
2023-04-18T20:07:26.240Z,11.57
2023-04-18T20:09:55.387Z,11.27
2023-04-18T20:12:24.479Z,11.02
2023-04-18T20:14:53.502Z,10.45
2023-04-18T20:17:22.194Z,10.82
2023-04-18T20:19:52.060Z,10.00
2023-04-18T20:22:22.034Z,10.35
2023-04-18T20:24:52.827Z,10.75
2023-04-18T20:27:21.609Z,10.93
2023-04-18T20:29:50.260Z,10.25
2023-04-18T20:32:18.918Z,10.32
2023-04-18T20:34:47.733Z,10.70
2023-04-18T20:37:20.016Z,9.93
2023-04-18T20:39:49.938Z,10.63
2023-04-18T20:42:18.903Z,10.13
2023-04-18T20:44:47.969Z,10.18
2023-04-18T20:47:17.705Z,9.95
2023-04-18T20:49:46.617Z,9.68
2023-04-18T20:52:15.650Z,9.80
2023-04-18T20:54:44.669Z,10.07
2023-04-18T20:57:14.933Z,10.25
2023-04-18T20:59:43.534Z,9.98
2023-04-18T21:02:12.097Z,10.10
2023-04-18T21:04:41.065Z,9.98
2023-04-18T21:07:09.720Z,9.80
2023-04-18T21:09:38.254Z,9.82
2023-04-18T21:12:07.697Z,10.68
2023-04-18T21:14:39.760Z,9.95
2023-04-18T21:17:09.839Z,9.50
2023-04-18T21:19:38.281Z,10.18
2023-04-18T21:22:06.882Z,9.70
2023-04-18T21:24:36.214Z,10.20
2023-04-18T21:27:05.208Z,10.20
2023-04-18T21:29:35.162Z,9.98
2023-04-18T21:32:06.105Z,9.07
2023-04-18T21:34:34.927Z,9.63
2023-04-18T21:37:04.122Z,9.18
2023-04-18T21:39:32.861Z,9.82
2023-04-18T21:42:02.014Z,9.50
2023-04-18T21:44:30.724Z,9.65
2023-04-18T21:47:01.268Z,10.23
2023-04-18T21:49:31.519Z,9.80
2023-04-18T21:52:00.574Z,10.32
2023-04-18T21:54:31.003Z,10.48
2023-04-18T21:56:59.649Z,10.40
2023-04-18T21:59:29.511Z,10.23
2023-04-18T22:01:58.794Z,10.50
2023-04-18T22:04:27.794Z,9.82
2023-04-18T22:06:58.224Z,10.48
2023-04-18T22:09:26.753Z,10.57
2023-04-18T22:11:57.118Z,9.75
2023-04-18T22:14:26.231Z,10.65
2023-04-18T22:16:55.233Z,10.68
2023-04-18T22:19:25.140Z,10.32
2023-04-18T22:21:53.928Z,10.55
2023-04-18T22:24:25.992Z,10.25
2023-04-18T22:26:55.065Z,9.50
2023-04-18T22:29:23.863Z,9.63
2023-04-18T22:31:56.661Z,9.65
2023-04-18T22:34:25.342Z,10.38
2023-04-18T22:36:55.176Z,10.70
2023-04-18T22:39:26.212Z,9.85
2023-04-18T22:41:54.825Z,10.75
2023-04-18T22:44:23.552Z,10.52
2023-04-18T22:46:54.658Z,10.93
2023-04-18T22:49:23.389Z,11.50
2023-04-18T22:51:54.555Z,11.63
2023-04-18T22:54:24.438Z,10.68
2023-04-18T22:56:53.456Z,10.90
2023-04-18T22:59:21.981Z,10.57
2023-04-18T23:01:50.549Z,10.88
2023-04-18T23:04:19.272Z,11.45
2023-04-18T23:06:48.072Z,11.15
2023-04-18T23:09:19.735Z,11.63
2023-04-18T23:11:49.499Z,11.15
2023-04-18T23:14:17.985Z,11.48
2023-04-18T23:16:46.236Z,11.88
2023-04-18T23:19:16.959Z,11.23
2023-04-18T23:21:47.638Z,12.75
2023-04-18T23:24:17.631Z,12.20
2023-04-18T23:26:46.194Z,12.20
2023-04-18T23:29:16.100Z,11.77
2023-04-18T23:31:44.612Z,12.38
2023-04-18T23:34:13.372Z,12.10
2023-04-18T23:36:42.452Z,12.68
2023-04-18T23:39:12.366Z,12.48
2023-04-18T23:41:40.957Z,13.25
2023-04-18T23:44:09.332Z,12.55
2023-04-18T23:46:39.748Z,12.35
2023-04-18T23:49:08.671Z,11.85
2023-04-18T23:51:37.232Z,12.35
2023-04-18T23:54:06.171Z,13.52
2023-04-18T23:56:35.357Z,12.55
2023-04-18T23:59:06.623Z,13.00
